createdAt,value
2022-09-03T00:02:38.054Z,16.63
2022-09-03T00:05:13.304Z,16.64
2022-09-03T00:07:43.755Z,16.57
2022-09-03T00:10:19.600Z,16.41
2022-09-03T00:12:47.429Z,16.47
2022-09-03T00:15:20.919Z,16.39
2022-09-03T00:18:02.338Z,16.44
2022-09-03T00:20:36.277Z,16.53
2022-09-03T00:23:08.698Z,16.65
2022-09-03T00:25:49.149Z,16.61
2022-09-03T00:28:31.658Z,16.64
2022-09-03T00:31:11.919Z,16.63
2022-09-03T00:33:42.046Z,16.68
2022-09-03T00:36:16.521Z,16.67
2022-09-03T00:38:42.984Z,16.62
2022-09-03T00:41:24.639Z,16.70
2022-09-03T00:43:58.445Z,16.67
2022-09-03T00:46:41.807Z,16.67
2022-09-03T00:49:27.081Z,16.79
2022-09-03T00:52:06.014Z,16.79
2022-09-03T00:54:58.735Z,16.65
2022-09-03T00:57:38.765Z,16.70
2022-09-03T01:00:07.698Z,16.55
2022-09-03T01:02:48.069Z,16.57
2022-09-03T01:05:45.626Z,16.61
2022-09-03T01:08:24.828Z,16.71
2022-09-03T01:11:28.609Z,16.64
2022-09-03T01:14:13.268Z,16.69
2022-09-03T01:16:51.804Z,16.63
2022-09-03T01:19:48.709Z,16.54
2022-09-03T01:22:38.551Z,16.57
2022-09-03T01:25:32.160Z,16.61
2022-09-03T01:28:20.610Z,16.54
2022-09-03T01:31:02.767Z,16.54
2022-09-03T01:33:43.350Z,16.62
2022-09-03T01:36:32.302Z,16.70
2022-09-03T01:39:08.191Z,16.66
2022-09-03T01:42:20.978Z,16.53
2022-09-03T01:45:12.777Z,16.64
2022-09-03T01:48:13.306Z,16.73
2022-09-03T01:50:42.629Z,16.79
2022-09-03T01:53:27.993Z,16.88
2022-09-03T01:56:25.809Z,16.78
2022-09-03T01:59:09.603Z,16.65
2022-09-03T02:02:02.412Z,16.63
2022-09-03T02:04:29.091Z,16.60
2022-09-03T02:07:00.436Z,16.60
2022-09-03T02:09:29.298Z,16.63
2022-09-03T02:12:08.871Z,16.64
2022-09-03T02:14:36.182Z,16.69
2022-09-03T02:17:05.313Z,16.57
2022-09-03T02:19:32.465Z,16.71
2022-09-03T02:21:58.992Z,16.68
2022-09-03T02:24:26.350Z,16.65
2022-09-03T02:26:53.560Z,16.59
2022-09-03T02:29:20.604Z,16.61
2022-09-03T02:31:47.095Z,16.58
2022-09-03T02:34:14.082Z,16.57
2022-09-03T02:36:45.824Z,16.48
2022-09-03T02:39:14.117Z,16.57
2022-09-03T02:41:40.837Z,16.55
2022-09-03T02:44:11.111Z,16.55
2022-09-03T02:46:39.653Z,16.37
2022-09-03T02:49:06.678Z,16.37
2022-09-03T02:51:36.078Z,16.35
2022-09-03T02:54:02.865Z,16.49
2022-09-03T02:56:29.536Z,16.40
2022-09-03T02:58:56.973Z,16.39
2022-09-03T03:01:24.374Z,16.36
2022-09-03T03:03:51.025Z,16.36
2022-09-03T03:06:20.378Z,16.37
2022-09-03T03:08:48.314Z,16.38
2022-09-03T03:11:18.326Z,16.36
2022-09-03T03:13:48.238Z,16.32
2022-09-03T03:16:16.760Z,16.32
2022-09-03T03:18:46.393Z,16.27
2022-09-03T03:21:15.902Z,16.32
2022-09-03T03:23:42.833Z,16.32
2022-09-03T03:26:12.791Z,16.37
2022-09-03T03:28:42.409Z,16.43
2022-09-03T03:31:21.242Z,16.43
2022-09-03T03:33:55.488Z,16.43
2022-09-03T03:36:24.116Z,16.42
2022-09-03T03:38:54.427Z,16.41
2022-09-03T03:41:26.406Z,16.52
2022-09-03T03:43:57.984Z,16.56
2022-09-03T03:46:25.455Z,16.51
2022-09-03T03:48:52.675Z,16.48
2022-09-03T03:51:19.677Z,16.59
2022-09-03T03:53:46.896Z,16.49
2022-09-03T03:56:15.794Z,16.47
2022-09-03T03:58:44.246Z,16.55
2022-09-03T04:01:20.221Z,16.52
2022-09-03T04:03:47.037Z,16.50
2022-09-03T04:06:16.281Z,16.48
2022-09-03T04:08:44.641Z,16.58
2022-09-03T04:11:16.096Z,16.57
2022-09-03T04:13:44.209Z,16.63
2022-09-03T04:16:15.887Z,16.70
2022-09-03T04:18:42.458Z,16.82
2022-09-03T04:21:11.709Z,16.77
2022-09-03T04:23:48.477Z,16.73
2022-09-03T04:26:19.176Z,16.72
2022-09-03T04:28:45.829Z,16.67
2022-09-03T04:31:14.797Z,16.71
2022-09-03T04:33:42.334Z,16.66
2022-09-03T04:36:17.469Z,16.62
2022-09-03T04:38:47.702Z,16.56
2022-09-03T04:41:17.049Z,16.55
2022-09-03T04:43:44.224Z,16.57
2022-09-03T04:46:16.353Z,16.63
2022-09-03T04:48:48.739Z,16.57
2022-09-03T04:51:17.493Z,16.59
2022-09-03T04:53:46.454Z,16.48
2022-09-03T04:56:25.290Z,16.59
2022-09-03T04:58:57.310Z,16.62
2022-09-03T05:01:26.513Z,16.58
2022-09-03T05:03:55.237Z,16.66
2022-09-03T05:06:21.677Z,16.76
2022-09-03T05:08:49.211Z,16.76
2022-09-03T05:11:18.002Z,16.78
2022-09-03T05:13:49.011Z,16.77
2022-09-03T05:16:16.473Z,16.75
2022-09-03T05:18:43.129Z,16.76
2022-09-03T05:21:13.233Z,16.78
2022-09-03T05:23:47.558Z,16.81
2022-09-03T05:26:22.109Z,16.80
2022-09-03T05:28:49.007Z,16.85
2022-09-03T05:31:20.363Z,16.85
2022-09-03T05:33:49.221Z,16.89
2022-09-03T05:36:20.144Z,16.96
2022-09-03T05:38:47.675Z,16.94
2022-09-03T05:41:15.965Z,17.04
2022-09-03T05:43:43.392Z,16.98
2022-09-03T05:46:17.309Z,17.05
2022-09-03T05:48:44.644Z,16.99
2022-09-03T05:51:16.639Z,17.01
2022-09-03T05:53:45.705Z,16.99
2022-09-03T05:56:17.980Z,17.03
2022-09-03T05:58:47.693Z,17.04
2022-09-03T06:01:19.989Z,17.02
2022-09-03T06:04:08.540Z,17.03
2022-09-03T06:06:38.367Z,16.97
2022-09-03T06:09:07.384Z,16.95
2022-09-03T06:11:36.162Z,16.95
2022-09-03T06:14:08.507Z,17.03
2022-09-03T06:16:37.397Z,17.05
2022-09-03T06:19:07.753Z,17.09
2022-09-03T06:21:34.195Z,17.59
2022-09-03T06:24:00.631Z,18.25
2022-09-03T06:26:29.256Z,18.80
2022-09-03T06:28:57.009Z,19.08
2022-09-03T06:31:24.243Z,19.33
2022-09-03T06:33:50.781Z,19.42
2022-09-03T06:36:19.104Z,19.44
2022-09-03T06:38:46.786Z,19.69
2022-09-03T06:41:18.840Z,20.10
2022-09-03T06:43:46.393Z,20.54
2022-09-03T06:46:15.182Z,20.62
2022-09-03T06:48:42.557Z,20.83
2022-09-03T06:51:17.524Z,20.47
2022-09-03T06:53:49.747Z,20.59
2022-09-03T06:56:19.453Z,21.12
2022-09-03T06:58:47.740Z,21.29
2022-09-03T07:01:22.788Z,20.64
2022-09-03T07:03:55.956Z,20.89
2022-09-03T07:06:22.913Z,21.48
2022-09-03T07:08:49.371Z,21.07
2022-09-03T07:11:19.469Z,20.69
2022-09-03T07:13:48.869Z,20.47
2022-09-03T07:16:17.511Z,20.12
2022-09-03T07:18:45.146Z,19.97
2022-09-03T07:21:14.527Z,19.80
2022-09-03T07:23:41.918Z,20.00
2022-09-03T07:26:14.781Z,20.11
2022-09-03T07:28:43.123Z,19.93
2022-09-03T07:31:12.530Z,19.93
2022-09-03T07:33:39.684Z,19.74
2022-09-03T07:36:12.245Z,19.68
2022-09-03T07:38:38.690Z,19.71
2022-09-03T07:41:08.245Z,19.65
2022-09-03T07:43:48.293Z,19.68
2022-09-03T07:46:23.238Z,19.72
2022-09-03T07:48:52.014Z,19.82
2022-09-03T07:51:20.369Z,19.85
2022-09-03T07:53:48.325Z,19.89
2022-09-03T07:56:15.791Z,19.93
2022-09-03T07:58:43.026Z,19.93
2022-09-03T08:01:14.493Z,19.99
2022-09-03T08:03:46.812Z,20.03
2022-09-03T08:06:14.434Z,20.03
2022-09-03T08:08:41.523Z,20.02
2022-09-03T08:11:11.200Z,19.92
2022-09-03T08:13:48.563Z,19.83
2022-09-03T08:16:18.492Z,19.89
2022-09-03T08:18:47.545Z,19.75
2022-09-03T08:21:16.862Z,19.76
2022-09-03T08:23:45.966Z,19.73
2022-09-03T08:26:13.961Z,19.73
2022-09-03T08:28:42.500Z,19.64
2022-09-03T08:31:18.267Z,19.71
2022-09-03T08:33:51.978Z,19.53
2022-09-03T08:36:27.507Z,19.51
2022-09-03T08:38:55.273Z,19.29
2022-09-03T08:41:37.610Z,19.12
2022-09-03T08:44:20.017Z,18.99
2022-09-03T08:47:18.822Z,18.74
2022-09-03T08:50:00.038Z,18.69
2022-09-03T08:52:34.490Z,18.66
2022-09-03T08:55:36.189Z,18.32
2022-09-03T08:58:05.846Z,18.35
2022-09-03T09:01:03.174Z,18.42
2022-09-03T09:03:45.657Z,18.35
2022-09-03T09:06:23.896Z,18.45
2022-09-03T09:08:59.031Z,18.61
2022-09-03T09:11:54.415Z,18.52
2022-09-03T09:14:26.496Z,18.63
2022-09-03T09:17:08.393Z,18.67
2022-09-03T09:19:56.583Z,18.65
2022-09-03T09:23:09.412Z,18.68
2022-09-03T09:25:47.139Z,18.65
2022-09-03T09:28:18.288Z,18.59
2022-09-03T09:30:47.699Z,18.52
2022-09-03T09:33:19.590Z,18.57
2022-09-03T09:35:46.891Z,18.62
2022-09-03T09:38:14.082Z,18.66
2022-09-03T09:40:45.554Z,18.89
2022-09-03T09:43:16.371Z,19.03
2022-09-03T09:45:48.281Z,18.84
2022-09-03T09:48:31.410Z,19.12
2022-09-03T09:51:25.849Z,19.27
2022-09-03T09:54:04.001Z,19.07
2022-09-03T09:56:30.613Z,18.95
2022-09-03T09:59:08.252Z,18.90
2022-09-03T10:01:38.400Z,18.90
2022-09-03T10:04:13.577Z,18.60
2022-09-03T10:06:56.944Z,18.58
2022-09-03T10:09:29.910Z,18.55
2022-09-03T10:12:14.657Z,18.50
2022-09-03T10:14:57.049Z,18.53
2022-09-03T10:17:36.974Z,18.63
2022-09-03T10:20:27.287Z,18.67
2022-09-03T10:23:02.100Z,18.76
2022-09-03T10:25:40.382Z,19.21
2022-09-03T10:28:09.925Z,19.57
2022-09-03T10:31:03.151Z,19.81
2022-09-03T10:33:44.305Z,20.29
2022-09-03T10:36:34.481Z,23.16
2022-09-03T10:39:18.237Z,24.40
2022-09-03T10:41:48.194Z,24.73
2022-09-03T10:44:49.148Z,24.75
2022-09-03T10:48:03.350Z,25.35
2022-09-03T10:50:56.132Z,26.63
2022-09-03T10:53:53.582Z,26.40
2022-09-03T10:56:35.338Z,27.66
2022-09-03T10:59:27.231Z,29.94
2022-09-03T11:02:09.430Z,30.67
2022-09-03T11:04:42.009Z,31.78
2022-09-03T11:07:12.221Z,31.51
2022-09-03T11:09:55.352Z,31.67
2022-09-03T11:12:33.848Z,32.18
2022-09-03T11:15:05.497Z,31.47
2022-09-03T11:17:48.470Z,34.07
2022-09-03T11:20:24.789Z,34.15
2022-09-03T11:23:13.341Z,35.16
2022-09-03T11:25:47.293Z,33.83
2022-09-03T11:28:45.349Z,33.37
2022-09-03T11:31:52.288Z,32.33
2022-09-03T11:34:31.912Z,31.12
2022-09-03T11:37:18.735Z,29.50
2022-09-03T11:39:56.603Z,29.20
2022-09-03T11:42:36.046Z,28.53
2022-09-03T11:45:19.159Z,27.42
2022-09-03T11:47:48.818Z,27.13
2022-09-03T11:50:24.541Z,27.43
2022-09-03T11:52:54.212Z,28.65
2022-09-03T11:55:38.407Z,28.49
2022-09-03T11:58:25.215Z,28.80
2022-09-03T12:00:54.088Z,28.54
2022-09-03T12:03:28.510Z,27.40
2022-09-03T12:06:16.919Z,29.51
2022-09-03T12:08:55.502Z,30.91
2022-09-03T12:11:41.841Z,31.27
2022-09-03T12:14:27.271Z,31.41
2022-09-03T12:16:56.344Z,29.15
2022-09-03T12:19:36.233Z,28.56
2022-09-03T12:22:05.473Z,29.86
2022-09-03T12:24:37.882Z,30.19
2022-09-03T12:27:05.482Z,32.51
2022-09-03T12:29:32.258Z,31.89
2022-09-03T12:32:08.005Z,31.24
2022-09-03T12:34:34.709Z,31.07
2022-09-03T12:37:01.350Z,30.51
2022-09-03T12:42:23.712Z,33.67
2022-09-03T12:44:50.204Z,33.59
2022-09-03T12:50:16.649Z,32.12
2022-09-03T12:52:49.118Z,33.06
2022-09-03T12:55:28.300Z,34.04
2022-09-03T12:58:14.226Z,34.41
2022-09-03T13:01:03.756Z,33.53
2022-09-03T13:03:54.291Z,34.10
2022-09-03T13:06:34.962Z,34.61
2022-09-03T13:09:06.678Z,33.76
2022-09-03T13:11:37.202Z,32.67
2022-09-03T13:14:08.214Z,32.00
2022-09-03T13:16:43.928Z,32.79
2022-09-03T13:19:34.405Z,33.95
2022-09-03T13:22:19.595Z,33.58
2022-09-03T13:25:14.757Z,34.46
2022-09-03T13:27:53.957Z,35.31
2022-09-03T13:30:23.222Z,34.65
2022-09-03T13:33:09.095Z,33.30
2022-09-03T13:36:02.205Z,34.21
2022-09-03T13:38:45.013Z,34.94
2022-09-03T13:41:20.426Z,35.41
2022-09-03T13:43:53.782Z,34.63
2022-09-03T13:46:30.594Z,34.70
2022-09-03T13:49:27.187Z,33.90
2022-09-03T13:52:01.099Z,32.68
2022-09-03T13:54:50.486Z,30.60
2022-09-03T13:57:34.410Z,33.37
2022-09-03T14:00:10.621Z,31.28
2022-09-03T14:02:42.798Z,31.05
2022-09-03T14:05:45.928Z,30.02
2022-09-03T14:08:22.810Z,29.99
2022-09-03T14:11:06.288Z,30.37
2022-09-03T14:13:59.634Z,29.41
2022-09-03T14:16:40.344Z,29.27
2022-09-03T14:19:19.709Z,28.79
2022-09-03T14:22:00.091Z,28.45
2022-09-03T14:24:29.481Z,28.10
2022-09-03T14:27:02.225Z,27.84
2022-09-03T14:29:32.433Z,27.51
2022-09-03T14:32:11.038Z,27.06
2022-09-03T14:35:00.405Z,26.49
2022-09-03T14:37:54.834Z,25.80
2022-09-03T14:40:40.379Z,25.55
2022-09-03T14:43:06.890Z,25.67
2022-09-03T14:45:52.613Z,25.61
2022-09-03T14:48:47.593Z,25.48
2022-09-03T14:51:32.163Z,25.16
2022-09-03T14:54:37.167Z,25.11
2022-09-03T14:57:13.112Z,25.07
2022-09-03T14:59:45.415Z,24.92
2022-09-03T15:02:33.808Z,24.86
2022-09-03T15:05:12.265Z,24.45
2022-09-03T15:07:59.329Z,24.28
2022-09-03T15:10:49.536Z,23.81
2022-09-03T15:13:21.879Z,23.85
2022-09-03T15:16:35.978Z,23.74
2022-09-03T15:19:26.908Z,23.63
2022-09-03T15:22:25.659Z,23.53
2022-09-03T15:25:04.887Z,23.50
2022-09-03T15:27:56.642Z,23.63
2022-09-03T15:30:23.676Z,23.55
2022-09-03T15:32:56.213Z,23.53
2022-09-03T15:35:44.584Z,23.43
2022-09-03T15:38:21.824Z,23.36
2022-09-03T15:40:50.653Z,23.59
2022-09-03T15:43:26.064Z,23.80
2022-09-03T15:46:00.340Z,23.96
2022-09-03T15:48:50.564Z,23.96
2022-09-03T15:51:58.984Z,23.90
2022-09-03T15:54:49.983Z,23.95
2022-09-03T15:57:22.520Z,23.83
2022-09-03T15:59:59.406Z,23.68
2022-09-03T16:02:33.498Z,23.75
2022-09-03T16:05:13.844Z,23.66
2022-09-03T16:08:05.375Z,23.44
2022-09-03T16:10:51.004Z,23.37
2022-09-03T16:13:44.909Z,23.26
2022-09-03T16:16:14.735Z,23.28
2022-09-03T16:18:55.736Z,23.10
2022-09-03T16:21:31.131Z,23.21
2022-09-03T16:24:12.838Z,23.23
2022-09-03T16:27:03.162Z,23.21
2022-09-03T16:29:31.443Z,23.19
2022-09-03T16:32:30.216Z,23.12
2022-09-03T16:35:21.817Z,22.88
2022-09-03T16:37:51.816Z,22.86
2022-09-03T16:40:26.812Z,22.94
2022-09-03T16:43:41.722Z,22.92
2022-09-03T16:46:30.720Z,22.90
2022-09-03T16:49:25.195Z,22.81
2022-09-03T16:52:10.550Z,22.77
2022-09-03T16:54:57.390Z,22.70
2022-09-03T16:57:39.022Z,22.58
2022-09-03T17:00:15.698Z,22.66
2022-09-03T17:03:03.799Z,22.51
2022-09-03T17:05:49.054Z,22.47
2022-09-03T17:08:38.891Z,22.42
2022-09-03T17:11:50.303Z,22.49
2022-09-03T17:14:50.239Z,22.43
2022-09-03T17:17:46.329Z,22.38
2022-09-03T17:20:18.825Z,22.46
2022-09-03T17:22:53.419Z,22.26
2022-09-03T17:25:36.908Z,22.27
2022-09-03T17:28:12.337Z,22.36
2022-09-03T17:30:56.382Z,22.27
2022-09-03T17:33:54.463Z,22.30
2022-09-03T17:36:27.159Z,22.28
2022-09-03T17:39:08.464Z,22.26
2022-09-03T17:41:40.846Z,22.25
2022-09-03T17:44:38.112Z,22.15
2022-09-03T17:47:33.835Z,21.97
2022-09-03T17:50:07.156Z,21.85
2022-09-03T17:52:43.357Z,21.55
2022-09-03T17:55:27.578Z,21.57
2022-09-03T17:58:14.595Z,21.56
2022-09-03T18:01:21.520Z,21.42
2022-09-03T18:04:30.113Z,21.16
2022-09-03T18:07:09.541Z,20.88
2022-09-03T18:10:04.087Z,21.04
2022-09-03T18:13:03.546Z,21.05
2022-09-03T18:15:57.720Z,20.87
2022-09-03T18:18:31.946Z,20.87
2022-09-03T18:21:25.530Z,20.94
2022-09-03T18:24:25.873Z,21.09
2022-09-03T18:27:26.602Z,21.03
2022-09-03T18:30:22.162Z,20.85
2022-09-03T18:33:07.379Z,20.82
2022-09-03T18:35:52.974Z,20.64
2022-09-03T18:38:46.824Z,20.78
2022-09-03T18:42:01.127Z,20.67
2022-09-03T18:45:18.286Z,20.80
2022-09-03T18:48:20.430Z,20.45
2022-09-03T18:51:13.088Z,20.41
2022-09-03T18:54:12.157Z,20.36
2022-09-03T18:57:10.802Z,20.12
2022-09-03T19:00:26.688Z,20.22
2022-09-03T19:03:16.956Z,20.27
2022-09-03T19:06:18.723Z,20.25
2022-09-03T19:09:09.987Z,19.94
2022-09-03T19:12:25.951Z,19.85
2022-09-03T19:15:44.146Z,19.79
2022-09-03T19:18:52.624Z,19.86
2022-09-03T19:22:04.398Z,19.84
2022-09-03T19:24:49.738Z,19.67
2022-09-03T19:27:58.578Z,19.53
2022-09-03T19:30:53.080Z,19.53
2022-09-03T19:33:51.991Z,19.55
2022-09-03T19:36:51.487Z,19.54
2022-09-03T19:39:56.461Z,19.21
2022-09-03T19:43:05.883Z,19.13
2022-09-03T19:45:57.006Z,19.19
2022-09-03T19:49:16.171Z,19.26
2022-09-03T19:52:16.378Z,19.20
2022-09-03T19:55:01.220Z,19.10
2022-09-03T19:57:48.702Z,19.07
2022-09-03T20:00:34.250Z,19.12
2022-09-03T20:03:20.588Z,19.01
2022-09-03T20:06:10.730Z,18.98
2022-09-03T20:08:57.103Z,19.07
2022-09-03T20:11:27.587Z,19.36
2022-09-03T20:14:13.151Z,19.40
2022-09-03T20:17:16.506Z,19.40
2022-09-03T20:19:45.647Z,19.46
2022-09-03T20:22:23.716Z,19.47
2022-09-03T20:25:29.637Z,19.41
2022-09-03T20:28:13.856Z,19.26
2022-09-03T20:30:52.198Z,19.09
2022-09-03T20:33:51.650Z,19.11
2022-09-03T20:36:44.553Z,19.04
2022-09-03T20:39:38.540Z,18.95
2022-09-03T20:42:23.963Z,18.92
2022-09-03T20:45:16.543Z,18.94
2022-09-03T20:48:01.836Z,18.83
2022-09-03T20:50:39.146Z,18.84
2022-09-03T20:53:37.754Z,18.69
2022-09-03T20:56:18.126Z,18.56
2022-09-03T20:59:01.178Z,18.63
2022-09-03T21:01:45.050Z,18.72
2022-09-03T21:04:37.408Z,18.77
2022-09-03T21:07:34.606Z,18.86
2022-09-03T21:10:13.455Z,18.57
2022-09-03T21:12:48.074Z,18.35
2022-09-03T21:15:34.144Z,18.20
2022-09-03T21:18:45.473Z,18.27
2022-09-03T21:21:23.892Z,18.30
2022-09-03T21:24:06.175Z,18.22
2022-09-03T21:26:39.938Z,18.23
2022-09-03T21:29:22.206Z,18.13
2022-09-03T21:32:13.161Z,18.19
2022-09-03T21:34:43.263Z,18.10
2022-09-03T21:37:12.161Z,18.33
2022-09-03T21:39:48.732Z,18.39
2022-09-03T21:42:36.563Z,18.40
2022-09-03T21:45:09.756Z,18.28
2022-09-03T21:47:43.669Z,18.28
2022-09-03T21:50:19.103Z,18.11
2022-09-03T21:52:54.704Z,18.21
2022-09-03T21:55:45.055Z,18.10
2022-09-03T21:58:37.737Z,18.09
2022-09-03T22:01:14.254Z,18.10
2022-09-03T22:03:42.720Z,17.97
2022-09-03T22:06:25.174Z,18.10
2022-09-03T22:09:07.989Z,18.29
2022-09-03T22:12:11.941Z,18.27
2022-09-03T22:14:48.043Z,18.18
2022-09-03T22:17:22.955Z,17.94
2022-09-03T22:19:50.289Z,17.91
2022-09-03T22:22:29.076Z,18.12
2022-09-03T22:25:16.024Z,18.32
2022-09-03T22:28:06.214Z,18.20
2022-09-03T22:30:53.773Z,18.23
2022-09-03T22:33:42.044Z,18.22
2022-09-03T22:36:14.928Z,18.04
2022-09-03T22:39:17.222Z,17.99
2022-09-03T22:42:01.486Z,18.00
2022-09-03T22:44:58.582Z,18.08
2022-09-03T22:47:28.183Z,18.02
2022-09-03T22:50:22.772Z,17.92
2022-09-03T22:53:04.143Z,17.94
2022-09-03T22:55:30.683Z,17.90
2022-09-03T22:58:03.333Z,18.06
2022-09-03T23:00:34.004Z,18.06
2022-09-03T23:03:07.685Z,17.95
2022-09-03T23:05:43.893Z,17.95
2022-09-03T23:08:54.478Z,17.96
2022-09-03T23:11:45.174Z,17.65
2022-09-03T23:14:15.901Z,17.66
2022-09-03T23:16:51.179Z,17.66
2022-09-03T23:19:29.327Z,17.65
2022-09-03T23:22:01.443Z,17.70
2022-09-03T23:24:53.992Z,17.69
2022-09-03T23:27:27.417Z,17.76
2022-09-03T23:29:56.993Z,17.70
2022-09-03T23:32:25.511Z,17.46
2022-09-03T23:34:57.057Z,17.44
2022-09-03T23:37:42.122Z,17.48
2022-09-03T23:40:45.942Z,17.60
2022-09-03T23:43:49.721Z,17.38
2022-09-03T23:46:37.059Z,17.30
2022-09-03T23:49:20.093Z,17.39
2022-09-03T23:52:02.578Z,17.41
2022-09-03T23:54:34.722Z,17.38
2022-09-03T23:57:24.505Z,17.38
